ePrivacy and GPDR Cookie Consent by Cookie Consent
EmailTwitter


Observations de surface / Royaume-Uni / EGLL (03772)

Régions: Québec | Canada | États-Unis | Europe | France | UK | Ailleurs
Station
Affichage
Infos & localisation pour EGLL (03772) | Aide pour décoder les METARs

Observations prises le 2022-11-26 à 23H20 UTC à LONDON/HEATHROW, UK (EGLL)

Etat du ciel: couvert.

Obstacle(s) à la visibilité: faible pluie.

Température: 11.0 Celsius

Point de rosée: 9.0 Celsius

Humidité relative: 87%

Facteur vent 8.

Vents: Sud à 30 km/h ou 16 noeuds.

Pression au niveau moyen de la mer: 101.60 kilopascals.

Visibilité horizontale: 6.21 milles terrestres ou 9.94 kilomètres.

Hauteur du plafond: 244 mètres ( 800 pieds ).

Observation METAR:

EGLL 262320Z AUTO 18016KT 9999 -RA BKN008 OVC012 11/09 Q1016 TEMPO 4000 RA=